Time;durP1;ratioP1;P1;durP2;ratioP2;P2;SDS_P1;SDS_P2;PMS_P1;PMS_P2;Temp;Humidity;BMP_temperature;BMP_pressure;BME280_temperature;BME280_humidity;BME280_pressure;Samples;Min_cycle;Max_cycle;Signal;HPM_P1;HPM_P2
2023/09/14 00:00:31;;;;;;;29.40;20.08;;;;;;;-142.57;100.00;115900.28;5033749;28;20065;-77
2023/09/14 00:02:58;;;;;;;29.55;20.10;;;;;;;-142.57;100.00;115900.28;5033651;28;20087;-78
2023/09/14 00:05:24;;;;;;;26.23;19.58;;;;;;;-142.57;100.00;115900.28;5027655;28;20511;-78
2023/09/14 00:07:49;;;;;;;28.35;21.15;;;;;;;-142.57;100.00;115900.28;5032208;28;20033;-78
2023/09/14 00:10:15;;;;;;;30.17;20.25;;;;;;;-142.57;100.00;115900.28;5031736;28;20104;-79
2023/09/14 00:12:40;;;;;;;26.38;21.30;;;;;;;-142.57;100.00;115900.28;5031000;28;20033;-80
2023/09/14 00:15:06;;;;;;;29.35;21.70;;;;;;;-142.57;100.00;115900.28;5031582;28;20025;-78
2023/09/14 00:17:32;;;;;;;31.40;21.10;;;;;;;-142.57;100.00;115900.28;5031557;28;20576;-78
2023/09/14 00:19:57;;;;;;;26.98;18.85;;;;;;;-142.57;100.00;115900.28;5026632;28;20113;-78
2023/09/14 00:22:22;;;;;;;32.95;20.77;;;;;;;-142.57;100.00;115900.28;5031803;28;20057;-78
2023/09/14 00:24:48;;;;;;;25.48;18.63;;;;;;;-142.57;100.00;115900.28;5030755;28;20481;-78
2023/09/14 00:27:13;;;;;;;31.27;20.83;;;;;;;-142.57;100.00;115900.28;5031527;28;20033;-78
2023/09/14 00:29:39;;;;;;;29.33;21.27;;;;;;;-142.57;100.00;115900.28;5034008;28;20087;-78
2023/09/14 00:32:04;;;;;;;29.27;20.98;;;;;;;-142.57;100.00;115900.28;5034909;28;20087;-78
2023/09/14 00:34:30;;;;;;;24.67;19.27;;;;;;;-142.57;100.00;115900.28;5034778;28;20037;-79
2023/09/14 00:36:55;;;;;;;25.63;19.17;;;;;;;-142.57;100.00;115900.28;5017426;28;20040;-78
2023/09/14 00:39:21;;;;;;;27.52;18.55;;;;;;;-142.57;100.00;115900.28;5035156;28;20041;-78
2023/09/14 00:41:46;;;;;;;28.50;20.65;;;;;;;-142.57;100.00;115900.28;5017302;28;20484;-80
2023/09/14 00:44:12;;;;;;;32.20;20.73;;;;;;;-142.57;100.00;115900.28;5034753;28;20026;-78
2023/09/14 00:46:38;;;;;;;36.40;21.10;;;;;;;-142.57;100.00;115900.28;5016303;28;20571;-78
2023/09/14 00:49:04;;;;;;;28.45;20.83;;;;;;;-142.57;100.00;115900.28;5017260;28;20040;-77
2023/09/14 00:51:31;;;;;;;26.05;20.45;;;;;;;-142.57;100.00;115900.28;5034829;28;20040;-79
2023/09/14 00:53:58;;;;;;;30.63;20.30;;;;;;;-142.57;100.00;115900.28;5034339;28;20037;-78
2023/09/14 00:56:26;;;;;;;27.83;21.00;;;;;;;-142.57;100.00;115900.28;5016935;28;20040;-78
2023/09/14 00:58:53;;;;;;;22.88;18.95;;;;;;;-142.57;100.00;115900.28;5034946;28;20383;-78
2023/09/14 01:01:19;;;;;;;26.77;20.08;;;;;;;-142.57;100.00;115900.28;5016744;28;20022;-79
2023/09/14 01:03:45;;;;;;;24.70;18.98;;;;;;;-142.57;100.00;115900.28;5016528;28;20053;-78
2023/09/14 01:06:11;;;;;;;32.13;20.70;;;;;;;-142.57;100.00;115900.28;5034246;28;20037;-79
2023/09/14 01:08:37;;;;;;;26.55;19.08;;;;;;;-142.57;100.00;115900.28;5034746;28;20032;-78
2023/09/14 01:11:03;;;;;;;30.35;19.77;;;;;;;-142.57;100.00;115900.28;5000346;28;20034;-79
2023/09/14 01:14:08;;;;;;;21.02;17.63;;;;;;;-142.57;100.00;115900.28;5016342;28;20116;-78
2023/09/14 01:16:55;;;;;;;23.30;16.38;;;;;;;-142.57;100.00;115900.28;5007951;28;20030;-77
2023/09/14 01:19:30;;;;;;;29.20;17.90;;;;;;;-142.57;100.00;115900.28;5000227;28;20124;-78
2023/09/14 01:22:07;;;;;;;20.23;15.88;;;;;;;-142.57;100.00;115900.28;5016517;28;20128;-79
2023/09/14 01:24:49;;;;;;;20.95;16.17;;;;;;;-142.57;100.00;115900.28;5016166;28;20049;-77
2023/09/14 01:27:15;;;;;;;20.40;15.98;;;;;;;-142.57;100.00;115900.28;5015668;28;20488;-79
2023/09/14 01:29:41;;;;;;;23.13;15.05;;;;;;;-142.57;100.00;115900.28;5016429;28;20124;-77
2023/09/14 01:32:06;;;;;;;18.35;14.25;;;;;;;-142.57;100.00;115900.28;5016395;28;20124;-78
2023/09/14 01:34:32;;;;;;;16.80;13.82;;;;;;;-142.57;100.00;115900.28;5016355;28;20419;-78
2023/09/14 01:37:03;;;;;;;17.95;13.30;;;;;;;-142.57;100.00;115900.28;5033372;28;20040;-79
2023/09/14 01:39:31;;;;;;;18.85;13.10;;;;;;;-142.57;100.00;115900.28;5033625;28;20441;-78
2023/09/14 01:41:57;;;;;;;17.77;12.68;;;;;;;-142.57;100.00;115900.28;5033389;28;20033;-77
2023/09/14 01:44:25;;;;;;;15.93;13.57;;;;;;;-142.57;100.00;115900.28;5016014;28;20400;-78
2023/09/14 01:46:51;;;;;;;20.48;11.90;;;;;;;-142.57;100.00;115900.28;5033262;28;20033;-78
2023/09/14 01:49:17;;;;;;;15.70;11.27;;;;;;;-142.57;100.00;115900.28;5033644;28;20121;-78
2023/09/14 01:51:43;;;;;;;17.45;12.52;;;;;;;-142.57;100.00;115900.28;5015737;28;20120;-78
2023/09/14 01:54:08;;;;;;;15.00;11.35;;;;;;;-142.57;100.00;115900.28;5016150;28;20038;-77
2023/09/14 01:56:34;;;;;;;18.42;12.02;;;;;;;-142.57;100.00;115900.28;5033368;28;20041;-76
2023/09/14 01:59:00;;;;;;;15.70;11.30;;;;;;;-142.57;100.00;115900.28;5015669;28;20053;-77
2023/09/14 02:01:25;;;;;;;16.33;12.63;;;;;;;-142.57;100.00;115900.28;5016010;28;20100;-78
2023/09/14 02:03:51;;;;;;;16.30;11.95;;;;;;;-142.57;100.00;115900.28;5015658;28;20428;-78
2023/09/14 02:06:16;;;;;;;18.30;14.00;;;;;;;-142.57;100.00;115900.28;5033372;28;20029;-78
2023/09/14 02:08:42;;;;;;;19.55;12.82;;;;;;;-142.57;100.00;115900.28;5015131;28;20064;-77
2023/09/14 02:11:08;;;;;;;23.10;13.10;;;;;;;-142.57;100.00;115900.28;5033239;28;20033;-78
2023/09/14 02:13:34;;;;;;;14.32;11.77;;;;;;;-142.57;100.00;115900.28;5026830;28;20108;-78
2023/09/14 02:16:00;;;;;;;19.88;12.70;;;;;;;-142.57;100.00;115900.28;5015196;28;20060;-76
2023/09/14 02:18:26;;;;;;;17.90;11.55;;;;;;;-142.57;100.00;115900.28;5007928;28;20131;-79
2023/09/14 02:20:51;;;;;;;18.80;11.30;;;;;;;-142.57;100.00;115900.28;5013674;28;20041;-77
2023/09/14 02:23:18;;;;;;;16.65;11.25;;;;;;;-142.57;100.00;115900.28;5013120;28;20053;-79
2023/09/14 02:25:44;;;;;;;16.75;10.85;;;;;;;-142.57;100.00;115900.28;4995545;28;20041;-77
2023/09/14 02:28:15;;;;;;;18.00;10.60;;;;;;;-142.57;100.00;115900.28;5027821;28;20029;-78
2023/09/14 02:30:42;;;;;;;13.60;10.40;;;;;;;-142.57;100.00;115900.28;5032871;28;20057;-76
2023/09/14 02:33:08;;;;;;;15.20;10.00;;;;;;;-142.57;100.00;115900.28;5015489;28;20041;-78
2023/09/14 02:35:35;;;;;;;14.30;10.35;;;;;;;-142.57;100.00;115900.28;5032740;28;20030;-78
2023/09/14 02:38:02;;;;;;;15.90;11.18;;;;;;;-142.57;100.00;115900.28;5014860;28;20060;-78
2023/09/14 02:40:29;;;;;;;13.00;10.73;;;;;;;-142.57;100.00;115900.28;4995755;28;20046;-76
2023/09/14 02:42:55;;;;;;;18.77;10.90;;;;;;;-142.57;100.00;115900.28;5012653;28;20095;-78
2023/09/14 02:45:20;;;;;;;16.08;11.65;;;;;;;-142.57;100.00;115900.28;5032961;28;20105;-78
2023/09/14 02:47:46;;;;;;;17.23;10.70;;;;;;;-142.57;100.00;115900.28;5032854;28;20021;-77
2023/09/14 02:50:12;;;;;;;14.38;11.18;;;;;;;-142.57;100.00;115900.28;5032392;28;20420;-77
2023/09/14 02:52:38;;;;;;;15.50;11.43;;;;;;;-142.57;100.00;115900.28;5014908;28;20036;-77
2023/09/14 02:55:04;;;;;;;16.10;11.77;;;;;;;-142.57;100.00;115900.28;5015971;28;20132;-77
2023/09/14 02:57:29;;;;;;;16.23;11.80;;;;;;;-142.57;100.00;115900.28;5042215;28;20041;-77
2023/09/14 02:59:55;;;;;;;13.65;11.02;;;;;;;-142.57;100.00;115900.28;5037891;28;20044;-77
2023/09/14 03:02:24;;;;;;;17.48;12.07;;;;;;;-142.57;100.00;115900.28;5034953;28;20029;-77
2023/09/14 03:04:50;;;;;;;17.85;11.57;;;;;;;-142.57;100.00;115900.28;5054174;28;20022;-78
2023/09/14 03:07:17;;;;;;;20.88;11.68;;;;;;;-142.57;100.00;115900.28;5042409;28;20037;-78
2023/09/14 03:09:42;;;;;;;16.90;11.50;;;;;;;-142.57;100.00;115900.28;5015346;28;20034;-77
2023/09/14 03:12:09;;;;;;;16.38;11.27;;;;;;;-142.57;100.00;115900.28;5015160;28;20111;-77
2023/09/14 03:14:34;;;;;;;15.82;11.98;;;;;;;-142.57;100.00;115900.28;5032256;28;20038;-78
2023/09/14 03:17:00;;;;;;;18.23;11.43;;;;;;;-142.57;100.00;115900.28;5014514;28;20555;-77
2023/09/14 03:19:26;;;;;;;16.17;11.65;;;;;;;-142.57;100.00;115900.28;5013503;28;20125;-77
2023/09/14 03:21:51;;;;;;;16.15;12.10;;;;;;;-142.57;100.00;115900.28;5014613;28;20032;-77
2023/09/14 03:24:17;;;;;;;18.83;11.55;;;;;;;-142.57;100.00;115900.28;5013893;28;20399;-77
2023/09/14 03:26:43;;;;;;;18.58;11.95;;;;;;;-142.57;100.00;115900.28;5014410;28;20156;-77
2023/09/14 03:29:09;;;;;;;16.60;11.73;;;;;;;-142.57;100.00;115900.28;5014361;28;20099;-78
2023/09/14 03:31:37;;;;;;;16.77;12.25;;;;;;;-142.57;100.00;115900.28;5031880;28;20029;-78
2023/09/14 03:34:05;;;;;;;15.45;11.23;;;;;;;-142.57;100.00;115900.28;4998002;28;20055;-78
2023/09/14 03:36:31;;;;;;;16.83;11.63;;;;;;;-142.57;100.00;115900.28;5013906;28;20030;-79
2023/09/14 03:38:56;;;;;;;16.10;11.40;;;;;;;-142.57;100.00;115900.28;5031870;28;20045;-77
2023/09/14 03:41:27;;;;;;;13.60;10.57;;;;;;;-142.57;100.00;115900.28;5014225;28;20115;-77
2023/09/14 03:43:53;;;;;;;17.55;11.15;;;;;;;-142.57;100.00;115900.28;5014510;28;20425;-79
2023/09/14 03:46:18;;;;;;;18.55;11.52;;;;;;;-142.57;100.00;115900.28;5031759;28;20025;-78
2023/09/14 03:48:44;;;;;;;16.60;12.07;;;;;;;-142.57;100.00;115900.28;5013661;28;20372;-78
2023/09/14 03:51:10;;;;;;;21.17;12.15;;;;;;;-142.57;100.00;115900.28;5042785;28;20037;-77
2023/09/14 03:53:35;;;;;;;15.93;10.57;;;;;;;-142.57;100.00;115900.28;5033597;28;20037;-77
2023/09/14 03:56:01;;;;;;;14.70;11.45;;;;;;;-142.57;100.00;115900.28;5013441;28;20194;-78
2023/09/14 03:58:28;;;;;;;16.42;10.20;;;;;;;-142.57;100.00;115900.28;5014231;28;20559;-77
2023/09/14 04:00:55;;;;;;;14.52;10.65;;;;;;;-142.57;100.00;115900.28;5009589;28;20038;-77
2023/09/14 04:03:21;;;;;;;17.17;11.75;;;;;;;-142.57;100.00;115900.28;5013993;28;20117;-77
2023/09/14 04:05:46;;;;;;;13.48;9.82;;;;;;;-142.57;100.00;115900.28;5034247;28;20528;-77
2023/09/14 04:08:12;;;;;;;13.27;9.85;;;;;;;-142.57;100.00;115900.28;5035159;28;20090;-78
2023/09/14 04:10:38;;;;;;;15.93;10.35;;;;;;;-142.57;100.00;115900.28;5035433;28;20025;-76
2023/09/14 04:13:27;;;;;;;12.57;9.27;;;;;;;-142.57;100.00;115900.28;5035746;28;20370;-76
2023/09/14 04:15:53;;;;;;;16.60;11.02;;;;;;;-142.57;100.00;115900.28;5017194;28;20068;-77
2023/09/14 04:18:19;;;;;;;18.33;10.57;;;;;;;-142.57;100.00;115900.28;5017551;28;20041;-77
2023/09/14 04:20:49;;;;;;;15.98;10.15;;;;;;;-142.57;100.00;115900.28;5035152;28;20117;-78
2023/09/14 04:23:15;;;;;;;12.85;9.93;;;;;;;-142.57;100.00;115900.28;5016363;28;20029;-77
2023/09/14 04:25:44;;;;;;;13.77;10.00;;;;;;;-142.57;100.00;115900.28;5015734;28;20033;-78
2023/09/14 04:28:15;;;;;;;13.90;9.27;;;;;;;-142.57;100.00;115900.28;5016949;28;20585;-78
2023/09/14 04:30:49;;;;;;;11.38;9.10;;;;;;;-142.57;100.00;115900.28;5034519;28;20029;-78
2023/09/14 04:33:16;;;;;;;12.70;9.15;;;;;;;-142.57;100.00;115900.28;5017646;28;20041;-79
2023/09/14 04:35:43;;;;;;;14.48;10.15;;;;;;;-142.57;100.00;115900.28;5033999;28;20476;-76
2023/09/14 04:38:09;;;;;;;21.48;9.95;;;;;;;-142.57;100.00;115900.28;5034997;28;20056;-77
2023/09/14 04:40:43;;;;;;;18.27;9.95;;;;;;;-142.57;100.00;115900.28;5017570;28;20033;-76
2023/09/14 04:43:10;;;;;;;16.83;10.30;;;;;;;-142.57;100.00;115900.28;5017057;28;20400;-77
2023/09/14 04:45:36;;;;;;;16.40;9.85;;;;;;;-142.57;100.00;115900.28;5017144;28;20056;-77
2023/09/14 04:48:03;;;;;;;14.55;9.60;;;;;;;-142.57;100.00;115900.28;5034669;28;20357;-77
2023/09/14 04:50:28;;;;;;;16.38;10.40;;;;;;;-142.57;100.00;115900.28;5021472;28;20044;-77
2023/09/14 04:52:55;;;;;;;19.95;10.43;;;;;;;-142.57;100.00;115900.28;5037084;28;20033;-78
2023/09/14 04:55:21;;;;;;;15.75;10.38;;;;;;;-142.57;100.00;115900.28;5036902;28;20029;-77
2023/09/14 04:57:46;;;;;;;14.93;10.30;;;;;;;-142.57;100.00;115900.28;5019563;28;20046;-78
2023/09/14 05:00:12;;;;;;;19.10;10.30;;;;;;;-142.57;100.00;115900.28;5017179;28;20488;-75
2023/09/14 05:02:39;;;;;;;13.55;9.65;;;;;;;-142.57;100.00;115900.28;5000763;28;20032;-79
2023/09/14 05:05:06;;;;;;;16.38;9.77;;;;;;;-142.57;100.00;115900.28;5016748;28;20043;-80
2023/09/14 05:07:32;;;;;;;18.58;10.00;;;;;;;-142.57;100.00;115900.28;5016144;28;20121;-77
2023/09/14 05:09:58;;;;;;;19.45;10.80;;;;;;;-142.57;100.00;115900.28;5017062;28;20075;-78
2023/09/14 05:12:24;;;;;;;19.33;11.45;;;;;;;-142.57;100.00;115900.28;5034955;28;20369;-79
2023/09/14 05:14:50;;;;;;;15.50;10.15;;;;;;;-142.57;100.00;115900.28;5016830;28;20037;-80
2023/09/14 05:17:15;;;;;;;19.85;10.20;;;;;;;-142.57;100.00;115900.28;5034266;28;20076;-78
2023/09/14 05:19:42;;;;;;;22.50;9.77;;;;;;;-142.57;100.00;115900.28;5016819;28;20045;-82
2023/09/14 05:22:11;;;;;;;16.20;10.10;;;;;;;-142.57;100.00;115900.28;5016867;28;20080;-79
2023/09/14 05:24:40;;;;;;;12.27;9.00;;;;;;;-142.57;100.00;115900.28;5034331;28;20033;-81
2023/09/14 05:27:06;;;;;;;19.75;10.10;;;;;;;-142.57;100.00;115900.28;5034675;28;20057;-82
2023/09/14 05:29:32;;;;;;;19.10;9.25;;;;;;;-142.57;100.00;115900.28;5016241;28;20041;-78
2023/09/14 05:31:59;;;;;;;13.02;7.55;;;;;;;-142.57;100.00;115900.28;5000413;28;20095;-80
2023/09/14 05:34:24;;;;;;;26.05;9.05;;;;;;;-142.57;100.00;115900.28;5016022;28;20112;-79
2023/09/14 05:36:51;;;;;;;11.77;7.70;;;;;;;-142.57;98.00;115900.28;5000355;28;20040;-80
2023/09/14 05:39:16;;;;;;;16.75;7.70;;;;;;;-142.57;94.10;115900.28;5016185;28;20021;-78
2023/09/14 05:41:43;;;;;;;19.48;8.13;;;;;;;-142.57;97.45;115900.28;5015892;28;20115;-83
2023/09/14 05:44:10;;;;;;;13.63;8.07;;;;;;;-142.57;91.63;115900.28;5016222;28;20044;-79
2023/09/14 05:46:39;;;;;;;10.68;6.88;;;;;;;-142.57;91.27;115900.28;5016578;28;20034;-80
2023/09/14 05:49:06;;;;;;;10.35;6.20;;;;;;;-142.57;87.94;115900.28;5016411;28;20021;-81
2023/09/14 05:51:34;;;;;;;12.68;6.85;;;;;;;-142.57;85.60;115900.28;5034599;28;20064;-83
2023/09/14 05:54:01;;;;;;;13.60;6.47;;;;;;;-142.57;79.91;115900.28;5016363;28;20022;-79
2023/09/14 05:56:27;;;;;;;14.43;7.05;;;;;;;-142.57;80.67;115900.28;5015708;28;20136;-80
2023/09/14 05:58:53;;;;;;;12.05;6.63;;;;;;;-142.57;79.14;115900.28;5016407;28;20041;-78
2023/09/14 06:01:20;;;;;;;14.90;6.78;;;;;;;-142.57;84.02;115900.28;5016544;28;20068;-80
2023/09/14 06:03:47;;;;;;;10.27;6.47;;;;;;;-142.57;82.95;115900.28;5017090;28;20391;-79
2023/09/14 06:06:12;;;;;;;14.23;6.65;;;;;;;-142.57;80.09;115900.28;5015946;28;20056;-78
2023/09/14 06:08:40;;;;;;;14.43;6.20;;;;;;;-142.57;76.03;115900.28;5016011;28;20025;-79
2023/09/14 06:11:07;;;;;;;17.70;6.78;;;;;;;-142.57;74.63;115900.28;5016205;28;20104;-81
2023/09/14 06:13:33;;;;;;;14.93;6.60;;;;;;;-142.57;82.90;115900.28;5015932;28;20147;-77
2023/09/14 06:15:58;;;;;;;17.15;6.82;;;;;;;-142.57;81.42;115900.28;5032046;28;20030;-81
2023/09/14 06:18:24;;;;;;;11.23;6.57;;;;;;;-142.57;84.77;115900.28;5034095;28;20095;-80
2023/09/14 06:20:50;;;;;;;13.73;6.60;;;;;;;-142.57;82.74;115900.28;5014774;28;20030;-80
2023/09/14 06:23:16;;;;;;;11.20;6.72;;;;;;;-142.57;80.63;115900.28;5031122;28;20025;-83
2023/09/14 06:25:42;;;;;;;20.08;7.93;;;;;;;-142.57;82.10;115900.28;5034858;28;20067;-78
2023/09/14 06:28:10;;;;;;;11.38;7.43;;;;;;;-142.57;81.16;115900.28;5036262;28;20034;-83
2023/09/14 06:30:36;;;;;;;18.90;6.82;;;;;;;-142.57;79.00;115900.28;5035127;28;20057;-81
2023/09/14 06:33:01;;;;;;;10.30;6.90;;;;;;;-142.57;78.53;115900.28;5041550;28;20535;-80
2023/09/14 06:35:27;;;;;;;10.70;6.47;;;;;;;-142.57;77.63;115900.28;5021601;28;20076;-84
2023/09/14 06:37:53;;;;;;;13.90;6.93;;;;;;;-142.57;75.94;115900.28;5025440;28;20059;-76
2023/09/14 06:40:19;;;;;;;9.73;6.65;;;;;;;-142.57;78.17;115900.28;5009247;28;20139;-79
2023/09/14 06:42:44;;;;;;;11.90;6.70;;;;;;;-142.57;77.99;115900.28;5015493;28;20121;-79
2023/09/14 06:45:10;;;;;;;9.80;6.60;;;;;;;-142.57;77.52;115900.28;5029484;28;20853;-78
2023/09/14 06:47:35;;;;;;;15.07;6.25;;;;;;;-142.57;73.19;115900.28;5030620;28;20037;-82
2023/09/14 06:50:01;;;;;;;11.43;6.85;;;;;;;-142.57;75.36;115900.28;5029222;28;20092;-83
2023/09/14 06:52:27;;;;;;;11.63;7.05;;;;;;;-142.57;74.53;115900.28;5030167;28;20464;-82
2023/09/14 06:54:53;;;;;;;10.32;6.60;;;;;;;-142.57;73.69;115900.28;5030904;28;20117;-83
2023/09/14 06:57:18;;;;;;;7.65;6.43;;;;;;;-142.57;70.12;115900.28;5030301;28;20045;-81
2023/09/14 06:59:43;;;;;;;12.25;5.57;;;;;;;-142.57;67.12;115900.28;5030618;28;20029;-81
2023/09/14 07:02:09;;;;;;;7.20;5.45;;;;;;;-142.57;64.33;115900.28;5023003;28;20069;-84
2023/09/14 07:04:34;;;;;;;9.90;5.78;;;;;;;-142.57;60.30;115900.28;5030922;28;20037;-81
2023/09/14 07:07:00;;;;;;;8.55;4.88;;;;;;;-142.57;58.93;115900.28;5018108;28;20449;-83
2023/09/14 07:09:26;;;;;;;9.27;5.05;;;;;;;-142.57;54.92;115900.28;5030204;28;20041;-82
2023/09/14 07:11:52;;;;;;;7.80;4.75;;;;;;;-142.57;59.50;115900.28;5029415;28;20029;-81
2023/09/14 07:14:17;;;;;;;8.32;4.53;;;;;;;-142.57;56.72;115900.28;5028247;28;20049;-82
2023/09/14 07:16:43;;;;;;;13.10;4.68;;;;;;;-142.57;56.56;115900.28;5030103;28;20029;-82
2023/09/14 07:19:08;;;;;;;9.10;4.53;;;;;;;-142.57;55.04;115900.28;5030186;28;20063;-82
2023/09/14 07:21:37;;;;;;;12.13;4.60;;;;;;;-142.57;52.38;115900.28;5030991;28;20036;-81
2023/09/14 07:24:06;;;;;;;12.40;4.35;;;;;;;-142.57;51.49;115900.28;5032427;28;20503;-81
2023/09/14 07:26:35;;;;;;;6.25;3.83;;;;;;;-142.57;49.18;115900.28;5035759;28;20055;-80
2023/09/14 07:29:01;;;;;;;11.68;4.95;;;;;;;-142.57;50.52;115900.28;5017103;28;20033;-78
2023/09/14 07:31:26;;;;;;;11.73;4.82;;;;;;;-142.57;52.74;115900.28;5015242;28;20037;-81
2023/09/14 07:33:52;;;;;;;6.97;4.13;;;;;;;-142.57;53.83;115900.28;5024468;28;20051;-80
2023/09/14 07:36:18;;;;;;;9.65;4.47;;;;;;;-142.57;55.03;115900.28;5040445;28;20587;-82
2023/09/14 07:38:46;;;;;;;6.28;4.15;;;;;;;-142.57;52.84;115900.28;5029888;28;20056;-79
2023/09/14 07:41:14;;;;;;;8.57;4.47;;;;;;;-142.57;52.81;115900.28;5025059;28;20030;-81
2023/09/14 07:43:39;;;;;;;12.23;5.18;;;;;;;-142.57;53.54;115900.28;5033580;28;20087;-84
2023/09/14 07:46:05;;;;;;;8.50;4.85;;;;;;;-142.57;51.65;115900.28;5008192;28;20060;-83
2023/09/14 07:48:32;;;;;;;7.68;4.82;;;;;;;-142.57;51.18;115900.28;5008709;28;20449;-82
2023/09/14 07:50:57;;;;;;;6.75;5.60;;;;;;;-142.57;52.27;115900.28;5034243;28;20061;-82
2023/09/14 07:53:23;;;;;;;9.32;6.50;;;;;;;-142.57;51.49;115900.28;5035930;28;20029;-81
2023/09/14 07:55:52;;;;;;;12.68;6.38;;;;;;;-142.57;53.06;115900.28;5035577;28;20037;-81
2023/09/14 07:58:19;;;;;;;12.02;7.10;;;;;;;-142.57;53.90;115900.28;5035745;28;20388;-81
2023/09/14 08:00:46;;;;;;;13.85;7.70;;;;;;;-142.57;55.81;115900.28;5035575;28;20447;-78
2023/09/14 08:03:13;;;;;;;10.82;6.55;;;;;;;-142.57;55.73;115900.28;5036070;28;20607;-78
2023/09/14 08:05:39;;;;;;;9.23;6.95;;;;;;;-142.57;53.61;115900.28;5036033;28;20087;-85
2023/09/14 08:08:04;;;;;;;10.23;7.22;;;;;;;-142.57;53.88;115900.28;4999993;28;20439;-82
2023/09/14 08:10:30;;;;;;;14.63;8.85;;;;;;;-142.57;56.04;115900.28;5031612;28;20094;-79
2023/09/14 08:12:55;;;;;;;12.23;7.32;;;;;;;-142.57;55.43;115900.28;5036217;28;20069;-83
2023/09/14 08:15:24;;;;;;;11.45;9.20;;;;;;;-142.57;57.07;115900.28;5018131;28;20071;-82
2023/09/14 08:17:49;;;;;;;14.60;8.50;;;;;;;-142.57;58.48;115900.28;5036647;28;20033;-79
2023/09/14 08:20:15;;;;;;;14.38;7.45;;;;;;;-142.57;56.24;115900.28;5037554;28;20055;-79
2023/09/14 08:22:40;;;;;;;10.57;7.53;;;;;;;-142.57;55.09;115900.28;5036940;28;20025;-82
2023/09/14 08:25:07;;;;;;;26.17;9.05;;;;;;;-142.57;54.77;115900.28;5036490;28;20033;-79
2023/09/14 08:27:33;;;;;;;15.80;6.32;;;;;;;-142.57;52.04;115900.28;5036007;28;20057;-80
2023/09/14 08:29:58;;;;;;;12.30;8.20;;;;;;;-142.57;54.63;115900.28;5018708;28;20198;-81
2023/09/14 08:32:24;;;;;;;10.02;7.47;;;;;;;-142.57;55.62;115900.28;5036042;28;20075;-81
2023/09/14 08:34:50;;;;;;;28.80;8.57;;;;;;;-142.57;56.75;115900.28;5036321;28;20026;-81
2023/09/14 08:37:15;;;;;;;14.82;7.85;;;;;;;-142.57;57.19;115900.28;5035964;28;20129;-80
2023/09/14 08:39:41;;;;;;;19.10;9.02;;;;;;;-142.57;59.94;115900.28;5018259;28;20045;-81
2023/09/14 08:42:07;;;;;;;15.02;8.82;;;;;;;-142.57;59.69;115900.28;5018246;28;20041;-83
2023/09/14 08:44:34;;;;;;;14.40;8.10;;;;;;;-142.57;60.86;115900.28;5036184;28;20037;-79
2023/09/14 08:47:01;;;;;;;10.52;7.72;;;;;;;-142.57;61.53;115900.28;5035958;28;20033;-83
2023/09/14 08:49:28;;;;;;;10.85;8.40;;;;;;;-142.57;64.10;115900.28;5017709;28;20038;-81
2023/09/14 08:51:55;;;;;;;11.82;8.20;;;;;;;-142.57;62.28;115900.28;5035982;28;20416;-79
2023/09/14 08:54:21;;;;;;;13.15;8.32;;;;;;;-142.57;62.79;115900.28;5036043;28;20053;-81
2023/09/14 08:56:49;;;;;;;14.55;8.85;;;;;;;-142.57;59.88;115900.28;5035821;28;20030;-79
2023/09/14 08:59:17;;;;;;;19.02;7.80;;;;;;;-142.57;55.70;115900.28;5035908;28;20041;-81
2023/09/14 09:01:44;;;;;;;14.65;8.43;;;;;;;-142.57;55.46;115900.28;5035765;28;20034;-83
2023/09/14 09:04:10;;;;;;;10.38;8.20;;;;;;;-142.57;55.89;115900.28;5036230;28;20033;-83
2023/09/14 09:06:37;;;;;;;10.63;6.90;;;;;;;-142.57;53.76;115900.28;5035784;28;20487;-85
2023/09/14 09:09:04;;;;;;;13.85;7.32;;;;;;;-142.57;52.09;115900.28;5035564;28;20436;-81
2023/09/14 09:11:30;;;;;;;10.57;7.32;;;;;;;-142.57;51.44;115900.28;5034823;28;20033;-82
2023/09/14 09:13:56;;;;;;;8.52;6.40;;;;;;;-142.57;50.98;115900.28;5037159;28;20388;-84
2023/09/14 09:16:22;;;;;;;23.75;7.88;;;;;;;-142.57;51.59;115900.28;5036888;28;20045;-80
2023/09/14 09:19:05;;;;;;;11.73;6.55;;;;;;;-142.57;49.88;115900.28;5036746;28;20040;-81
2023/09/14 09:21:33;;;;;;;19.73;7.20;;;;;;;-142.57;52.12;115900.28;5035185;28;20121;-80
2023/09/14 09:24:04;;;;;;;21.20;7.40;;;;;;;-142.57;53.19;115900.28;5035104;28;20476;-79
2023/09/14 09:26:37;;;;;;;11.25;7.53;;;;;;;-142.57;52.50;115900.28;5035209;28;20473;-79
2023/09/14 09:29:16;;;;;;;18.02;7.13;;;;;;;-142.57;50.62;115900.28;5035951;28;20041;-80
2023/09/14 09:31:44;;;;;;;22.35;6.80;;;;;;;-142.57;47.07;115900.28;5036235;28;20029;-81
2023/09/14 09:34:11;;;;;;;16.30;7.00;;;;;;;-142.57;48.96;115900.28;5036380;28;20079;-79
2023/09/14 09:36:38;;;;;;;18.52;7.60;;;;;;;-142.57;49.22;115900.28;5035352;28;20123;-80
2023/09/14 09:39:07;;;;;;;17.55;9.35;;;;;;;-142.57;48.67;115900.28;5034668;28;20069;-77
2023/09/14 09:41:33;;;;;;;12.27;8.45;;;;;;;-142.57;49.25;115900.28;5034880;28;20041;-84
2023/09/14 09:44:00;;;;;;;9.55;7.22;;;;;;;-142.57;47.83;115900.28;5035964;28;20112;-88
2023/09/14 09:46:26;;;;;;;13.65;11.48;;;;;;;-142.57;48.51;115900.28;5019137;28;20072;-85
2023/09/14 09:48:51;;;;;;;13.00;11.15;;;;;;;-142.57;50.28;115900.28;5021044;28;20118;-82
2023/09/14 09:51:21;;;;;;;11.10;9.13;;;;;;;-142.57;49.33;115900.28;5032550;28;20033;-84
2023/09/14 09:54:07;;;;;;;15.75;11.43;;;;;;;-142.57;49.63;115900.28;5019245;28;20037;-88
2023/09/14 09:56:34;;;;;;;16.65;10.35;;;;;;;-142.57;49.04;115900.28;5035238;28;20068;-84
2023/09/14 09:59:02;;;;;;;13.23;9.73;;;;;;;-142.57;47.95;115900.28;5034638;28;20029;-84
2023/09/14 10:01:31;;;;;;;15.10;9.68;;;;;;;-142.57;47.87;115900.28;5035746;28;20041;-86
2023/09/14 10:03:59;;;;;;;13.07;9.75;;;;;;;-142.57;46.03;115900.28;5037963;28;20044;-82
2023/09/14 10:06:25;;;;;;;27.40;10.27;;;;;;;-142.57;45.02;115900.28;5017609;28;20045;-80
2023/09/14 10:08:57;;;;;;;23.85;8.95;;;;;;;-142.57;43.90;115900.28;5035280;28;20041;-79
2023/09/14 10:11:23;;;;;;;;;;;;;;;-142.57;42.27;115900.28;5035294;28;20067;-82
2023/09/14 10:13:49;;;;;;;11.98;8.13;;;;;;;-142.57;42.56;115900.28;5034425;28;19971;-79
2023/09/14 10:16:22;;;;;;;12.90;7.88;;;;;;;-142.57;43.13;115900.28;5034516;28;20121;-83
2023/09/14 10:18:49;;;;;;;11.70;7.90;;;;;;;-142.57;46.01;115900.28;5035482;28;20041;-79
2023/09/14 10:21:17;;;;;;;11.88;6.82;;;;;;;-142.57;43.49;115900.28;5035001;28;20152;-81
2023/09/14 10:23:43;;;;;;;10.02;5.70;;;;;;;-142.57;41.54;115900.28;5017629;28;20029;-80
2023/09/14 10:26:09;;;;;;;10.20;4.97;;;;;;;-142.57;42.25;115900.28;5035230;28;20034;-80
2023/09/14 10:28:37;;;;;;;12.85;8.10;;;;;;;-142.57;41.89;115900.28;5035570;28;20518;-83
2023/09/14 10:31:04;;;;;;;11.73;7.78;;;;;;;-142.57;42.41;115900.28;5017065;28;20033;-78
2023/09/14 10:33:34;;;;;;;13.52;8.07;;;;;;;-142.57;41.37;115900.28;5035538;28;20037;-78
2023/09/14 10:36:01;;;;;;;18.10;10.25;;;;;;;-142.57;42.91;115900.28;5035918;28;20064;-83
2023/09/14 10:38:29;;;;;;;12.73;7.75;;;;;;;-142.57;41.67;115900.28;5035082;28;20037;-82
2023/09/14 10:40:55;;;;;;;20.77;11.38;;;;;;;-142.57;41.48;115900.28;5035701;28;20026;-81
2023/09/14 10:43:21;;;;;;;14.23;11.23;;;;;;;-142.57;42.63;115900.28;5034708;28;20411;-80
2023/09/14 10:45:49;;;;;;;17.50;11.57;;;;;;;-142.57;41.19;115900.28;5034424;28;20034;-80
2023/09/14 10:48:21;;;;;;;14.23;10.80;;;;;;;-142.57;40.18;115900.28;5017751;28;20083;-80
2023/09/14 10:50:49;;;;;;;12.80;10.73;;;;;;;-142.57;40.43;115900.28;5017881;28;20056;-82
2023/09/14 10:53:15;;;;;;;17.50;9.80;;;;;;;-142.57;41.57;115900.28;5034661;28;20034;-80